Аэропорт: Елизово. Петропавловск-Камчатский

ICAO: UHPP

METAR:
Информация по данной станции не доступна
METAR:
2019-09-21 13:34:00
TAF UHPP 211334Z 2115/2221 36003G08MPS 9999 SCT040 FM212200 30003G12MPS 9999 NSC